sensor_id;sensor_type;location;lat;lon;timestamp;temperature;humidity
37594;DHT22;23441;50.856;6.076;2023-03-05T00:01:33;4.20;99.90
37594;DHT22;23441;50.856;6.076;2023-03-05T00:03:59;4.20;99.90
37594;DHT22;23441;50.856;6.076;2023-03-05T00:06:27;4.20;99.90
37594;DHT22;23441;50.856;6.076;2023-03-05T00:08:53;4.30;99.90
37594;DHT22;23441;50.856;6.076;2023-03-05T00:11:21;4.20;99.90
37594;DHT22;23441;50.856;6.076;2023-03-05T00:13:50;4.20;99.90
37594;DHT22;23441;50.856;6.076;2023-03-05T00:16:15;4.20;99.90
37594;DHT22;23441;50.856;6.076;2023-03-05T00:18:41;4.20;99.90
37594;DHT22;23441;50.856;6.076;2023-03-05T00:23:43;4.20;99.90
37594;DHT22;23441;50.856;6.076;2023-03-05T00:26:09;4.20;99.90
37594;DHT22;23441;50.856;6.076;2023-03-05T00:28:35;4.10;99.90
37594;DHT22;23441;50.856;6.076;2023-03-05T00:31:01;4.20;99.90
37594;DHT22;23441;50.856;6.076;2023-03-05T00:33:27;4.20;99.90
37594;DHT22;23441;50.856;6.076;2023-03-05T00:35:53;4.20;99.90
37594;DHT22;23441;50.856;6.076;2023-03-05T00:38:19;4.20;99.90
37594;DHT22;23441;50.856;6.076;2023-03-05T00:40:44;4.30;99.90
37594;DHT22;23441;50.856;6.076;2023-03-05T00:43:10;4.30;99.90
37594;DHT22;23441;50.856;6.076;2023-03-05T00:45:36;4.30;99.90
37594;DHT22;23441;50.856;6.076;2023-03-05T00:48:02;4.20;99.90
37594;DHT22;23441;50.856;6.076;2023-03-05T00:50:28;4.20;99.90
37594;DHT22;23441;50.856;6.076;2023-03-05T00:52:54;4.20;99.90
37594;DHT22;23441;50.856;6.076;2023-03-05T00:55:20;4.20;99.90
37594;DHT22;23441;50.856;6.076;2023-03-05T00:57:46;4.20;99.90
37594;DHT22;23441;50.856;6.076;2023-03-05T01:00:12;4.30;99.90
37594;DHT22;23441;50.856;6.076;2023-03-05T01:02:38;4.30;99.90
37594;DHT22;23441;50.856;6.076;2023-03-05T01:05:04;4.30;99.90
37594;DHT22;23441;50.856;6.076;2023-03-05T01:07:30;4.30;99.90
37594;DHT22;23441;50.856;6.076;2023-03-05T01:09:56;4.30;99.90
37594;DHT22;23441;50.856;6.076;2023-03-05T01:12:22;4.30;99.90
37594;DHT22;23441;50.856;6.076;2023-03-05T01:14:47;4.30;99.90
37594;DHT22;23441;50.856;6.076;2023-03-05T01:17:13;4.20;99.90
37594;DHT22;23441;50.856;6.076;2023-03-05T01:19:39;4.20;99.90
37594;DHT22;23441;50.856;6.076;2023-03-05T01:22:04;4.10;99.90
37594;DHT22;23441;50.856;6.076;2023-03-05T01:24:31;4.10;99.90
37594;DHT22;23441;50.856;6.076;2023-03-05T01:26:57;4.10;99.90
37594;DHT22;23441;50.856;6.076;2023-03-05T01:29:23;4.10;99.90
37594;DHT22;23441;50.856;6.076;2023-03-05T01:31:49;4.10;99.90
37594;DHT22;23441;50.856;6.076;2023-03-05T01:34:14;4.10;99.90
37594;DHT22;23441;50.856;6.076;2023-03-05T01:36:41;4.10;99.90
37594;DHT22;23441;50.856;6.076;2023-03-05T01:39:07;4.10;99.90
37594;DHT22;23441;50.856;6.076;2023-03-05T01:41:33;4.10;99.90
37594;DHT22;23441;50.856;6.076;2023-03-05T01:43:59;4.10;99.90
37594;DHT22;23441;50.856;6.076;2023-03-05T01:46:37;4.00;99.90
37594;DHT22;23441;50.856;6.076;2023-03-05T01:51:48;4.00;99.90
37594;DHT22;23441;50.856;6.076;2023-03-05T01:54:18;4.00;99.90
37594;DHT22;23441;50.856;6.076;2023-03-05T01:56:48;4.00;99.90
37594;DHT22;23441;50.856;6.076;2023-03-05T01:59:15;4.00;99.90
37594;DHT22;23441;50.856;6.076;2023-03-05T02:01:47;4.10;99.90
37594;DHT22;23441;50.856;6.076;2023-03-05T02:04:16;4.10;99.90
37594;DHT22;23441;50.856;6.076;2023-03-05T02:06:43;4.00;99.90
37594;DHT22;23441;50.856;6.076;2023-03-05T02:09:10;4.00;99.90
37594;DHT22;23441;50.856;6.076;2023-03-05T02:11:36;4.00;99.90
37594;DHT22;23441;50.856;6.076;2023-03-05T02:14:03;4.10;99.90
37594;DHT22;23441;50.856;6.076;2023-03-05T02:16:29;4.00;99.90
37594;DHT22;23441;50.856;6.076;2023-03-05T02:19:05;4.00;99.90
37594;DHT22;23441;50.856;6.076;2023-03-05T02:21:43;4.00;99.90
37594;DHT22;23441;50.856;6.076;2023-03-05T02:24:14;4.00;99.90
37594;DHT22;23441;50.856;6.076;2023-03-05T02:26:41;4.00;99.90
37594;DHT22;23441;50.856;6.076;2023-03-05T02:29:11;4.00;99.90
37594;DHT22;23441;50.856;6.076;2023-03-05T02:31:37;4.00;99.90
37594;DHT22;23441;50.856;6.076;2023-03-05T02:34:03;4.00;99.90
37594;DHT22;23441;50.856;6.076;2023-03-05T02:36:29;4.00;99.90
37594;DHT22;23441;50.856;6.076;2023-03-05T02:38:55;4.00;99.90
37594;DHT22;23441;50.856;6.076;2023-03-05T02:41:22;4.00;99.90
37594;DHT22;23441;50.856;6.076;2023-03-05T02:43:47;4.00;99.90
37594;DHT22;23441;50.856;6.076;2023-03-05T02:46:13;3.90;99.90
37594;DHT22;23441;50.856;6.076;2023-03-05T02:48:39;4.00;99.90
37594;DHT22;23441;50.856;6.076;2023-03-05T02:51:06;4.00;99.90
37594;DHT22;23441;50.856;6.076;2023-03-05T02:53:31;3.90;99.90
37594;DHT22;23441;50.856;6.076;2023-03-05T02:55:57;3.90;99.90
37594;DHT22;23441;50.856;6.076;2023-03-05T02:58:23;3.90;99.90
37594;DHT22;23441;50.856;6.076;2023-03-05T03:00:49;3.90;99.90
37594;DHT22;23441;50.856;6.076;2023-03-05T03:03:15;3.80;99.90
37594;DHT22;23441;50.856;6.076;2023-03-05T03:05:40;3.80;99.90
37594;DHT22;23441;50.856;6.076;2023-03-05T03:08:06;3.90;99.90
37594;DHT22;23441;50.856;6.076;2023-03-05T03:10:32;3.90;99.90
37594;DHT22;23441;50.856;6.076;2023-03-05T03:12:58;3.90;99.90
37594;DHT22;23441;50.856;6.076;2023-03-05T03:15:24;3.90;99.90
37594;DHT22;23441;50.856;6.076;2023-03-05T03:17:49;3.90;99.90
37594;DHT22;23441;50.856;6.076;2023-03-05T03:20:17;3.90;99.90
37594;DHT22;23441;50.856;6.076;2023-03-05T03:22:44;3.80;99.90
37594;DHT22;23441;50.856;6.076;2023-03-05T03:25:13;3.80;99.90
37594;DHT22;23441;50.856;6.076;2023-03-05T03:27:39;3.80;99.90
37594;DHT22;23441;50.856;6.076;2023-03-05T03:30:06;3.80;99.90
37594;DHT22;23441;50.856;6.076;2023-03-05T03:32:32;3.80;99.90
37594;DHT22;23441;50.856;6.076;2023-03-05T03:34:57;3.80;99.90
37594;DHT22;23441;50.856;6.076;2023-03-05T03:37:24;3.70;99.90
37594;DHT22;23441;50.856;6.076;2023-03-05T03:39:49;3.70;99.90
37594;DHT22;23441;50.856;6.076;2023-03-05T03:42:19;3.70;99.90
37594;DHT22;23441;50.856;6.076;2023-03-05T03:44:45;3.70;99.90
37594;DHT22;23441;50.856;6.076;2023-03-05T03:47:11;3.70;99.90
37594;DHT22;23441;50.856;6.076;2023-03-05T03:49:36;3.70;99.90
37594;DHT22;23441;50.856;6.076;2023-03-05T03:52:02;3.70;99.90
37594;DHT22;23441;50.856;6.076;2023-03-05T03:54:28;3.70;99.90
37594;DHT22;23441;50.856;6.076;2023-03-05T03:56:53;3.80;99.90
37594;DHT22;23441;50.856;6.076;2023-03-05T03:59:19;3.70;99.90
37594;DHT22;23441;50.856;6.076;2023-03-05T04:01:45;3.70;99.90
37594;DHT22;23441;50.856;6.076;2023-03-05T04:04:12;3.70;99.90
37594;DHT22;23441;50.856;6.076;2023-03-05T04:06:38;3.70;99.90
37594;DHT22;23441;50.856;6.076;2023-03-05T04:09:04;3.70;99.90
37594;DHT22;23441;50.856;6.076;2023-03-05T04:11:30;3.70;99.90
37594;DHT22;23441;50.856;6.076;2023-03-05T04:13:56;3.70;99.90
37594;DHT22;23441;50.856;6.076;2023-03-05T04:16:22;3.70;99.90
37594;DHT22;23441;50.856;6.076;2023-03-05T04:18:47;3.70;99.90
37594;DHT22;23441;50.856;6.076;2023-03-05T04:21:13;3.70;99.90
37594;DHT22;23441;50.856;6.076;2023-03-05T04:23:39;3.60;99.90
37594;DHT22;23441;50.856;6.076;2023-03-05T04:26:05;3.60;99.90
37594;DHT22;23441;50.856;6.076;2023-03-05T04:28:31;3.60;99.90
37594;DHT22;23441;50.856;6.076;2023-03-05T04:30:57;3.60;99.90
37594;DHT22;23441;50.856;6.076;2023-03-05T04:33:23;3.60;99.90
37594;DHT22;23441;50.856;6.076;2023-03-05T04:35:49;3.60;99.90
37594;DHT22;23441;50.856;6.076;2023-03-05T04:38:15;3.60;99.90
37594;DHT22;23441;50.856;6.076;2023-03-05T04:40:40;3.50;99.90
37594;DHT22;23441;50.856;6.076;2023-03-05T04:43:06;3.60;99.90
37594;DHT22;23441;50.856;6.076;2023-03-05T04:45:32;3.60;99.90
37594;DHT22;23441;50.856;6.076;2023-03-05T04:47:58;3.50;99.90
37594;DHT22;23441;50.856;6.076;2023-03-05T04:50:24;3.50;99.90
37594;DHT22;23441;50.856;6.076;2023-03-05T04:52:50;3.50;99.90
37594;DHT22;23441;50.856;6.076;2023-03-05T04:55:16;3.50;99.90
37594;DHT22;23441;50.856;6.076;2023-03-05T04:57:42;3.50;99.90
37594;DHT22;23441;50.856;6.076;2023-03-05T05:00:12;3.50;99.90
37594;DHT22;23441;50.856;6.076;2023-03-05T05:02:42;3.50;99.90
37594;DHT22;23441;50.856;6.076;2023-03-05T05:05:11;3.60;99.90
37594;DHT22;23441;50.856;6.076;2023-03-05T05:07:37;3.60;99.90
37594;DHT22;23441;50.856;6.076;2023-03-05T05:10:03;3.60;99.90
37594;DHT22;23441;50.856;6.076;2023-03-05T05:12:29;3.50;99.90
37594;DHT22;23441;50.856;6.076;2023-03-05T05:14:59;3.60;99.90
37594;DHT22;23441;50.856;6.076;2023-03-05T05:17:25;3.60;99.90
37594;DHT22;23441;50.856;6.076;2023-03-05T05:19:50;3.70;99.90
37594;DHT22;23441;50.856;6.076;2023-03-05T05:22:16;3.60;99.90
37594;DHT22;23441;50.856;6.076;2023-03-05T05:24:42;3.60;99.90
37594;DHT22;23441;50.856;6.076;2023-03-05T05:27:08;3.50;99.90
37594;DHT22;23441;50.856;6.076;2023-03-05T05:29:33;3.40;99.90
37594;DHT22;23441;50.856;6.076;2023-03-05T05:31:59;3.50;99.90
37594;DHT22;23441;50.856;6.076;2023-03-05T05:34:25;3.50;99.90
37594;DHT22;23441;50.856;6.076;2023-03-05T05:36:51;3.40;99.90
37594;DHT22;23441;50.856;6.076;2023-03-05T05:39:17;3.40;99.90
37594;DHT22;23441;50.856;6.076;2023-03-05T05:41:42;3.40;99.90
37594;DHT22;23441;50.856;6.076;2023-03-05T05:44:08;3.30;99.90
37594;DHT22;23441;50.856;6.076;2023-03-05T05:46:34;3.30;99.90
37594;DHT22;23441;50.856;6.076;2023-03-05T05:48:59;3.40;99.90
37594;DHT22;23441;50.856;6.076;2023-03-05T05:51:25;3.40;99.90
37594;DHT22;23441;50.856;6.076;2023-03-05T05:53:51;3.40;99.90
37594;DHT22;23441;50.856;6.076;2023-03-05T05:56:17;3.40;99.90
37594;DHT22;23441;50.856;6.076;2023-03-05T05:58:44;3.20;99.90
37594;DHT22;23441;50.856;6.076;2023-03-05T06:01:23;3.30;99.90
37594;DHT22;23441;50.856;6.076;2023-03-05T06:03:50;3.30;99.90
37594;DHT22;23441;50.856;6.076;2023-03-05T06:06:18;3.30;99.90
37594;DHT22;23441;50.856;6.076;2023-03-05T06:08:43;3.30;99.90
37594;DHT22;23441;50.856;6.076;2023-03-05T06:11:09;3.30;99.90
37594;DHT22;23441;50.856;6.076;2023-03-05T06:13:35;3.30;99.90
37594;DHT22;23441;50.856;6.076;2023-03-05T06:16:04;3.20;99.90
37594;DHT22;23441;50.856;6.076;2023-03-05T06:18:31;3.30;99.90
37594;DHT22;23441;50.856;6.076;2023-03-05T06:21:03;3.30;99.90
37594;DHT22;23441;50.856;6.076;2023-03-05T06:23:29;3.30;99.90
37594;DHT22;23441;50.856;6.076;2023-03-05T06:25:58;3.20;99.90
37594;DHT22;23441;50.856;6.076;2023-03-05T06:28:24;3.20;99.90
37594;DHT22;23441;50.856;6.076;2023-03-05T06:30:49;3.20;99.90
37594;DHT22;23441;50.856;6.076;2023-03-05T06:33:15;3.30;99.90
37594;DHT22;23441;50.856;6.076;2023-03-05T06:35:41;3.20;99.90
37594;DHT22;23441;50.856;6.076;2023-03-05T06:38:07;3.20;99.90
37594;DHT22;23441;50.856;6.076;2023-03-05T06:40:34;3.20;99.90
37594;DHT22;23441;50.856;6.076;2023-03-05T06:42:59;3.20;99.90
37594;DHT22;23441;50.856;6.076;2023-03-05T06:45:25;3.30;99.90
37594;DHT22;23441;50.856;6.076;2023-03-05T06:47:51;3.30;99.90
37594;DHT22;23441;50.856;6.076;2023-03-05T06:50:17;3.20;99.90
37594;DHT22;23441;50.856;6.076;2023-03-05T06:52:42;3.20;99.90
37594;DHT22;23441;50.856;6.076;2023-03-05T06:55:08;3.20;99.90
37594;DHT22;23441;50.856;6.076;2023-03-05T06:57:35;3.20;99.90
37594;DHT22;23441;50.856;6.076;2023-03-05T07:00:02;3.20;99.90
37594;DHT22;23441;50.856;6.076;2023-03-05T07:02:32;3.20;99.90
37594;DHT22;23441;50.856;6.076;2023-03-05T07:04:57;3.20;99.90
37594;DHT22;23441;50.856;6.076;2023-03-05T07:07:23;3.30;99.90
37594;DHT22;23441;50.856;6.076;2023-03-05T07:09:49;3.20;99.90
37594;DHT22;23441;50.856;6.076;2023-03-05T07:12:17;3.30;99.90
37594;DHT22;23441;50.856;6.076;2023-03-05T07:14:43;3.30;99.90
37594;DHT22;23441;50.856;6.076;2023-03-05T07:17:08;3.30;99.90
37594;DHT22;23441;50.856;6.076;2023-03-05T07:19:34;3.30;99.90
37594;DHT22;23441;50.856;6.076;2023-03-05T07:21:59;3.40;99.90
37594;DHT22;23441;50.856;6.076;2023-03-05T07:24:25;3.40;99.90
37594;DHT22;23441;50.856;6.076;2023-03-05T07:26:55;3.50;99.90
37594;DHT22;23441;50.856;6.076;2023-03-05T07:29:22;3.50;99.90
37594;DHT22;23441;50.856;6.076;2023-03-05T07:31:48;3.60;99.90
37594;DHT22;23441;50.856;6.076;2023-03-05T07:34:14;3.60;99.90
37594;DHT22;23441;50.856;6.076;2023-03-05T07:36:39;3.60;99.90
37594;DHT22;23441;50.856;6.076;2023-03-05T07:39:06;3.70;99.90
37594;DHT22;23441;50.856;6.076;2023-03-05T07:41:32;3.70;99.90
37594;DHT22;23441;50.856;6.076;2023-03-05T07:43:58;3.70;99.90
37594;DHT22;23441;50.856;6.076;2023-03-05T07:46:27;3.80;99.90
37594;DHT22;23441;50.856;6.076;2023-03-05T07:48:53;3.80;99.90
37594;DHT22;23441;50.856;6.076;2023-03-05T07:51:19;3.80;99.90
37594;DHT22;23441;50.856;6.076;2023-03-05T07:53:46;3.70;99.90
37594;DHT22;23441;50.856;6.076;2023-03-05T07:56:13;3.70;99.90
37594;DHT22;23441;50.856;6.076;2023-03-05T07:58:39;3.70;99.90
37594;DHT22;23441;50.856;6.076;2023-03-05T08:01:10;3.70;99.90
37594;DHT22;23441;50.856;6.076;2023-03-05T08:03:38;3.60;99.90
37594;DHT22;23441;50.856;6.076;2023-03-05T08:06:05;3.60;99.90
37594;DHT22;23441;50.856;6.076;2023-03-05T08:08:31;3.70;99.90
37594;DHT22;23441;50.856;6.076;2023-03-05T08:11:03;3.80;99.90
37594;DHT22;23441;50.856;6.076;2023-03-05T08:13:29;3.80;99.90
37594;DHT22;23441;50.856;6.076;2023-03-05T08:15:54;3.80;99.90
37594;DHT22;23441;50.856;6.076;2023-03-05T08:18:20;3.70;99.90
37594;DHT22;23441;50.856;6.076;2023-03-05T08:20:46;3.70;99.90
37594;DHT22;23441;50.856;6.076;2023-03-05T08:23:11;3.70;99.90
37594;DHT22;23441;50.856;6.076;2023-03-05T08:25:37;3.80;99.90
37594;DHT22;23441;50.856;6.076;2023-03-05T08:28:03;3.80;99.90
37594;DHT22;23441;50.856;6.076;2023-03-05T08:30:29;3.90;99.90
37594;DHT22;23441;50.856;6.076;2023-03-05T08:32:54;3.90;99.90
37594;DHT22;23441;50.856;6.076;2023-03-05T08:35:20;3.90;99.90
37594;DHT22;23441;50.856;6.076;2023-03-05T08:37:46;3.90;99.90
37594;DHT22;23441;50.856;6.076;2023-03-05T08:40:12;3.90;99.90
37594;DHT22;23441;50.856;6.076;2023-03-05T08:42:38;3.90;99.90
37594;DHT22;23441;50.856;6.076;2023-03-05T08:45:03;3.90;99.90
37594;DHT22;23441;50.856;6.076;2023-03-05T08:47:30;3.90;99.90
37594;DHT22;23441;50.856;6.076;2023-03-05T08:49:56;4.00;99.90
37594;DHT22;23441;50.856;6.076;2023-03-05T08:52:22;4.10;99.90
37594;DHT22;23441;50.856;6.076;2023-03-05T08:54:48;4.10;99.90
37594;DHT22;23441;50.856;6.076;2023-03-05T08:57:14;4.20;99.90
37594;DHT22;23441;50.856;6.076;2023-03-05T08:59:40;4.20;99.90
37594;DHT22;23441;50.856;6.076;2023-03-05T09:02:06;4.30;99.90
37594;DHT22;23441;50.856;6.076;2023-03-05T09:04:31;4.40;99.90
37594;DHT22;23441;50.856;6.076;2023-03-05T09:06:57;4.50;99.90
37594;DHT22;23441;50.856;6.076;2023-03-05T09:09:23;4.60;99.90
37594;DHT22;23441;50.856;6.076;2023-03-05T09:11:49;4.70;99.90
37594;DHT22;23441;50.856;6.076;2023-03-05T09:14:16;4.70;99.90
37594;DHT22;23441;50.856;6.076;2023-03-05T09:16:42;4.70;99.90
37594;DHT22;23441;50.856;6.076;2023-03-05T09:19:08;4.70;99.90
37594;DHT22;23441;50.856;6.076;2023-03-05T09:21:35;4.60;99.90
37594;DHT22;23441;50.856;6.076;2023-03-05T09:24:01;4.60;99.90
37594;DHT22;23441;50.856;6.076;2023-03-05T09:26:27;4.50;99.90
37594;DHT22;23441;50.856;6.076;2023-03-05T09:28:53;4.50;99.90
37594;DHT22;23441;50.856;6.076;2023-03-05T09:31:19;4.50;99.90
37594;DHT22;23441;50.856;6.076;2023-03-05T09:33:46;4.50;99.90
37594;DHT22;23441;50.856;6.076;2023-03-05T09:36:26;4.50;99.90
37594;DHT22;23441;50.856;6.076;2023-03-05T09:38:52;4.40;99.90
37594;DHT22;23441;50.856;6.076;2023-03-05T09:46:52;4.00;99.90
37594;DHT22;23441;50.856;6.076;2023-03-05T09:52:06;4.10;99.90
37594;DHT22;23441;50.856;6.076;2023-03-05T09:54:47;4.10;99.90
37594;DHT22;23441;50.856;6.076;2023-03-05T09:57:17;4.20;99.90
37594;DHT22;23441;50.856;6.076;2023-03-05T09:59:58;4.20;99.90
37594;DHT22;23441;50.856;6.076;2023-03-05T10:02:29;4.30;99.90
37594;DHT22;23441;50.856;6.076;2023-03-05T10:07:32;4.40;99.90
37594;DHT22;23441;50.856;6.076;2023-03-05T10:10:29;4.60;99.90
37594;DHT22;23441;50.856;6.076;2023-03-05T10:13:04;4.70;99.90
37594;DHT22;23441;50.856;6.076;2023-03-05T10:15:44;4.80;99.90
37594;DHT22;23441;50.856;6.076;2023-03-05T10:21:00;5.00;99.90
37594;DHT22;23441;50.856;6.076;2023-03-05T10:26:29;5.10;99.90
37594;DHT22;23441;50.856;6.076;2023-03-05T10:32:09;5.30;99.90
37594;DHT22;23441;50.856;6.076;2023-03-05T10:35:01;5.40;99.90
37594;DHT22;23441;50.856;6.076;2023-03-05T10:37:53;5.30;99.90
37594;DHT22;23441;50.856;6.076;2023-03-05T10:40:39;5.30;99.90
37594;DHT22;23441;50.856;6.076;2023-03-05T10:43:23;5.40;99.90
37594;DHT22;23441;50.856;6.076;2023-03-05T10:45:53;5.30;99.90
37594;DHT22;23441;50.856;6.076;2023-03-05T10:48:49;5.20;99.90
37594;DHT22;23441;50.856;6.076;2023-03-05T10:51:35;5.10;99.90
37594;DHT22;23441;50.856;6.076;2023-03-05T10:54:21;5.20;99.90
37594;DHT22;23441;50.856;6.076;2023-03-05T10:56:50;5.40;99.90
37594;DHT22;23441;50.856;6.076;2023-03-05T10:59:16;5.50;99.90
37594;DHT22;23441;50.856;6.076;2023-03-05T11:01:45;5.50;99.90
37594;DHT22;23441;50.856;6.076;2023-03-05T11:04:28;5.60;99.90
37594;DHT22;23441;50.856;6.076;2023-03-05T11:06:54;5.70;99.90
37594;DHT22;23441;50.856;6.076;2023-03-05T11:09:27;5.80;99.90
37594;DHT22;23441;50.856;6.076;2023-03-05T11:14:29;5.90;99.90
37594;DHT22;23441;50.856;6.076;2023-03-05T11:16:58;5.90;99.90
37594;DHT22;23441;50.856;6.076;2023-03-05T11:19:32;5.80;99.90
37594;DHT22;23441;50.856;6.076;2023-03-05T11:22:17;5.70;99.90
37594;DHT22;23441;50.856;6.076;2023-03-05T11:27:37;5.60;99.90
37594;DHT22;23441;50.856;6.076;2023-03-05T11:30:23;5.50;99.90
37594;DHT22;23441;50.856;6.076;2023-03-05T11:32:49;5.60;99.90
37594;DHT22;23441;50.856;6.076;2023-03-05T11:35:33;5.60;99.90
37594;DHT22;23441;50.856;6.076;2023-03-05T11:38:00;5.60;99.90
37594;DHT22;23441;50.856;6.076;2023-03-05T11:40:29;5.70;99.90
37594;DHT22;23441;50.856;6.076;2023-03-05T11:42:58;5.70;99.90
37594;DHT22;23441;50.856;6.076;2023-03-05T11:45:25;5.70;99.90
37594;DHT22;23441;50.856;6.076;2023-03-05T11:48:15;5.90;99.90
37594;DHT22;23441;50.856;6.076;2023-03-05T11:50:40;5.90;99.90
37594;DHT22;23441;50.856;6.076;2023-03-05T11:53:18;5.90;99.90
37594;DHT22;23441;50.856;6.076;2023-03-05T11:55:48;6.00;99.90
37594;DHT22;23441;50.856;6.076;2023-03-05T11:58:36;6.10;99.90
37594;DHT22;23441;50.856;6.076;2023-03-05T12:01:12;6.10;99.90
37594;DHT22;23441;50.856;6.076;2023-03-05T12:03:39;6.20;99.90
37594;DHT22;23441;50.856;6.076;2023-03-05T12:08:58;6.20;99.90
37594;DHT22;23441;50.856;6.076;2023-03-05T12:11:27;6.30;99.90
37594;DHT22;23441;50.856;6.076;2023-03-05T12:14:01;6.20;99.90
37594;DHT22;23441;50.856;6.076;2023-03-05T12:19:29;5.80;99.90
37594;DHT22;23441;50.856;6.076;2023-03-05T12:21:57;5.70;99.90
37594;DHT22;23441;50.856;6.076;2023-03-05T12:29:48;5.50;99.90
37594;DHT22;23441;50.856;6.076;2023-03-05T12:47:43;5.70;99.90
37594;DHT22;23441;50.856;6.076;2023-03-05T12:56:00;5.30;99.90
37594;DHT22;23441;50.856;6.076;2023-03-05T12:58:36;5.30;99.90
37594;DHT22;23441;50.856;6.076;2023-03-05T13:03:39;5.40;99.90
37594;DHT22;23441;50.856;6.076;2023-03-05T13:06:25;5.50;99.90
37594;DHT22;23441;50.856;6.076;2023-03-05T13:08:56;5.60;99.90
37594;DHT22;23441;50.856;6.076;2023-03-05T13:11:22;5.70;99.90
37594;DHT22;23441;50.856;6.076;2023-03-05T13:13:48;5.80;99.90
37594;DHT22;23441;50.856;6.076;2023-03-05T13:18:46;5.90;99.90
37594;DHT22;23441;50.856;6.076;2023-03-05T13:21:13;5.90;99.90
37594;DHT22;23441;50.856;6.076;2023-03-05T13:23:48;6.00;99.90
37594;DHT22;23441;50.856;6.076;2023-03-05T13:26:19;5.90;99.90
37594;DHT22;23441;50.856;6.076;2023-03-05T13:31:31;5.70;99.90
37594;DHT22;23441;50.856;6.076;2023-03-05T13:34:19;5.70;99.90
37594;DHT22;23441;50.856;6.076;2023-03-05T13:37:05;5.70;99.90
37594;DHT22;23441;50.856;6.076;2023-03-05T13:39:36;5.60;99.90
37594;DHT22;23441;50.856;6.076;2023-03-05T13:42:24;5.60;99.90
37594;DHT22;23441;50.856;6.076;2023-03-05T13:44:56;5.60;99.90
37594;DHT22;23441;50.856;6.076;2023-03-05T13:47:24;5.50;99.90
37594;DHT22;23441;50.856;6.076;2023-03-05T13:50:23;5.50;99.90
37594;DHT22;23441;50.856;6.076;2023-03-05T13:52:49;5.50;99.90
37594;DHT22;23441;50.856;6.076;2023-03-05T13:55:16;5.50;99.90
37594;DHT22;23441;50.856;6.076;2023-03-05T13:57:48;5.40;99.90
37594;DHT22;23441;50.856;6.076;2023-03-05T14:00:38;5.30;99.90
37594;DHT22;23441;50.856;6.076;2023-03-05T14:05:44;5.20;99.90
37594;DHT22;23441;50.856;6.076;2023-03-05T14:08:19;5.10;99.90
37594;DHT22;23441;50.856;6.076;2023-03-05T14:10:46;5.00;99.90
37594;DHT22;23441;50.856;6.076;2023-03-05T14:13:20;5.00;99.90
37594;DHT22;23441;50.856;6.076;2023-03-05T14:16:12;4.80;99.90
37594;DHT22;23441;50.856;6.076;2023-03-05T14:18:50;4.90;99.90
37594;DHT22;23441;50.856;6.076;2023-03-05T14:21:18;4.90;99.90
37594;DHT22;23441;50.856;6.076;2023-03-05T14:23:48;4.90;99.90
37594;DHT22;23441;50.856;6.076;2023-03-05T14:26:34;4.90;99.90
37594;DHT22;23441;50.856;6.076;2023-03-05T14:29:13;5.00;99.90
37594;DHT22;23441;50.856;6.076;2023-03-05T14:31:53;5.00;99.90
37594;DHT22;23441;50.856;6.076;2023-03-05T14:34:48;5.00;99.90
37594;DHT22;23441;50.856;6.076;2023-03-05T14:37:23;5.00;99.90
37594;DHT22;23441;50.856;6.076;2023-03-05T14:45:41;4.90;99.90
37594;DHT22;23441;50.856;6.076;2023-03-05T14:48:10;4.80;99.90
37594;DHT22;23441;50.856;6.076;2023-03-05T14:50:42;4.80;99.90
37594;DHT22;23441;50.856;6.076;2023-03-05T14:53:13;4.90;99.90
37594;DHT22;23441;50.856;6.076;2023-03-05T14:55:40;4.90;99.90
37594;DHT22;23441;50.856;6.076;2023-03-05T14:58:11;4.90;99.90
37594;DHT22;23441;50.856;6.076;2023-03-05T15:00:38;5.00;99.90
37594;DHT22;23441;50.856;6.076;2023-03-05T15:03:04;5.00;99.90
37594;DHT22;23441;50.856;6.076;2023-03-05T15:05:30;5.00;99.90
37594;DHT22;23441;50.856;6.076;2023-03-05T15:07:56;5.10;99.90
37594;DHT22;23441;50.856;6.076;2023-03-05T15:10:23;5.20;99.90
37594;DHT22;23441;50.856;6.076;2023-03-05T15:12:50;5.10;99.90
37594;DHT22;23441;50.856;6.076;2023-03-05T15:15:17;5.10;99.90
37594;DHT22;23441;50.856;6.076;2023-03-05T15:17:46;5.20;99.90
37594;DHT22;23441;50.856;6.076;2023-03-05T15:20:18;5.20;99.90
37594;DHT22;23441;50.856;6.076;2023-03-05T15:22:44;5.10;99.90
37594;DHT22;23441;50.856;6.076;2023-03-05T15:25:10;5.10;99.90
37594;DHT22;23441;50.856;6.076;2023-03-05T15:27:36;5.00;99.90
37594;DHT22;23441;50.856;6.076;2023-03-05T15:30:03;5.10;99.90
37594;DHT22;23441;50.856;6.076;2023-03-05T15:32:29;5.10;99.90
37594;DHT22;23441;50.856;6.076;2023-03-05T15:34:56;5.10;99.90
37594;DHT22;23441;50.856;6.076;2023-03-05T15:37:22;5.20;99.90
37594;DHT22;23441;50.856;6.076;2023-03-05T15:39:48;5.10;99.90
37594;DHT22;23441;50.856;6.076;2023-03-05T15:42:13;5.10;99.90
37594;DHT22;23441;50.856;6.076;2023-03-05T15:44:39;5.10;99.90
37594;DHT22;23441;50.856;6.076;2023-03-05T15:47:05;5.10;99.90
37594;DHT22;23441;50.856;6.076;2023-03-05T15:49:31;5.00;99.90
37594;DHT22;23441;50.856;6.076;2023-03-05T15:51:57;5.00;99.90
37594;DHT22;23441;50.856;6.076;2023-03-05T15:54:23;4.90;99.90
37594;DHT22;23441;50.856;6.076;2023-03-05T15:56:49;4.90;99.90
37594;DHT22;23441;50.856;6.076;2023-03-05T15:59:16;4.90;99.90
37594;DHT22;23441;50.856;6.076;2023-03-05T16:01:49;4.80;99.90
37594;DHT22;23441;50.856;6.076;2023-03-05T16:04:16;4.70;99.90
37594;DHT22;23441;50.856;6.076;2023-03-05T16:06:46;4.70;99.90
37594;DHT22;23441;50.856;6.076;2023-03-05T16:09:13;4.70;99.90
37594;DHT22;23441;50.856;6.076;2023-03-05T16:11:41;4.70;99.90
37594;DHT22;23441;50.856;6.076;2023-03-05T16:14:15;4.60;99.90
37594;DHT22;23441;50.856;6.076;2023-03-05T16:16:42;4.60;99.90
37594;DHT22;23441;50.856;6.076;2023-03-05T16:19:10;4.60;99.90
37594;DHT22;23441;50.856;6.076;2023-03-05T16:21:38;4.60;99.90
37594;DHT22;23441;50.856;6.076;2023-03-05T16:24:03;4.50;99.90
37594;DHT22;23441;50.856;6.076;2023-03-05T16:26:29;4.50;99.90
37594;DHT22;23441;50.856;6.076;2023-03-05T16:28:55;4.50;99.90
37594;DHT22;23441;50.856;6.076;2023-03-05T16:31:21;4.40;99.90
37594;DHT22;23441;50.856;6.076;2023-03-05T16:33:46;4.40;99.90
37594;DHT22;23441;50.856;6.076;2023-03-05T16:38:48;4.40;99.90
37594;DHT22;23441;50.856;6.076;2023-03-05T16:41:14;4.40;99.90
37594;DHT22;23441;50.856;6.076;2023-03-05T16:43:41;4.40;99.90
37594;DHT22;23441;50.856;6.076;2023-03-05T16:46:08;4.30;99.90
37594;DHT22;23441;50.856;6.076;2023-03-05T16:48:34;4.20;99.90
37594;DHT22;23441;50.856;6.076;2023-03-05T16:51:00;4.10;99.90
37594;DHT22;23441;50.856;6.076;2023-03-05T16:53:26;4.10;99.90
37594;DHT22;23441;50.856;6.076;2023-03-05T16:55:51;4.10;99.90
37594;DHT22;23441;50.856;6.076;2023-03-05T16:58:17;4.10;99.90
37594;DHT22;23441;50.856;6.076;2023-03-05T17:00:43;4.00;99.90
37594;DHT22;23441;50.856;6.076;2023-03-05T17:03:09;4.00;99.90
37594;DHT22;23441;50.856;6.076;2023-03-05T17:05:36;3.90;99.90
37594;DHT22;23441;50.856;6.076;2023-03-05T17:08:02;3.90;99.90
37594;DHT22;23441;50.856;6.076;2023-03-05T17:10:29;3.90;99.90
37594;DHT22;23441;50.856;6.076;2023-03-05T17:12:55;3.80;99.90
37594;DHT22;23441;50.856;6.076;2023-03-05T17:15:22;3.80;99.90